Norfolk, Virginia
Traffic Map
Current Weather Conditions
Norfolk, Virginia
Clear
Clear

Feels Like: 1°
Wind Chill: Ceiling: Unl
Heat Index: Visibility: 10mi
Dew Point: -8° Wind: 0mph
Humidity: 52% Direction: ° ()
Pressure: 30.53in Gusts: 0mph
Raw Report DataKORF 110351Z 00000KT 10SM CLR 01/M08 A3053 RMK AO2 SLP338 T00111078
Traffic Incident Summary
Active as of:
Severity:
Category:
InformationThere was an issue retrieving the traffic information for this location. Please try a different location or try again shortly.
Advertisements
Track Severe Weather on mobile